Time;durP1;ratioP1;P1;durP2;ratioP2;P2;SDS_P1;SDS_P2;PMS_P1;PMS_P2;Temp;Humidity;BMP_temperature;BMP_pressure;BME280_temperature;BME280_humidity;BME280_pressure;Samples;Min_cycle;Max_cycle;Signal;HPM_P1;HPM_P2
2022/05/09 00:00:14;;;;;;;;;32.50;26.00;;;;;15.29;58.70;101578.31;4954588;28;45673;-62
2022/05/09 00:02:40;;;;;;;;;25.00;23.50;;;;;15.23;58.97;101573.28;4940946;28;47138;-64
2022/05/09 00:05:07;;;;;;;;;23.75;22.50;;;;;15.22;59.05;101578.66;4956247;28;45472;-61
2022/05/09 00:07:33;;;;;;;;;24.00;21.00;;;;;15.15;59.13;101576.25;4956348;28;45404;-62
2022/05/09 00:10:00;;;;;;;;;23.00;19.75;;;;;15.16;59.28;101585.09;4954061;28;45402;-59
2022/05/09 00:12:25;;;;;;;;;24.00;22.75;;;;;15.10;59.32;101580.91;4953932;28;45775;-61
2022/05/09 00:14:50;;;;;;;;;22.75;21.25;;;;;15.05;59.25;101577.59;4953402;28;45563;-63
2022/05/09 00:17:16;;;;;;;;;24.75;22.50;;;;;14.96;59.06;101575.34;4955631;28;45405;-61
2022/05/09 00:19:41;;;;;;;;;25.00;22.00;;;;;14.97;59.35;101583.25;4956695;28;45227;-58
2022/05/09 00:22:06;;;;;;;;;22.25;22.25;;;;;14.89;59.20;101575.59;4955736;28;46316;-60
2022/05/09 00:24:32;;;;;;;;;19.00;17.25;;;;;14.87;59.22;101588.06;4955256;28;45339;-60
2022/05/09 00:26:58;;;;;;;;;20.50;20.50;;;;;14.78;59.76;101577.84;4956119;28;45291;-61
2022/05/09 00:29:24;;;;;;;;;14.50;14.50;;;;;14.76;59.24;101585.00;4956071;28;45322;-59
2022/05/09 00:31:53;;;;;;;;;19.50;19.50;;;;;14.69;59.77;101578.22;4954921;28;45484;-58
2022/05/09 00:34:21;;;;;;;;;22.25;18.50;;;;;14.61;59.96;101574.09;4956132;28;45529;-59
2022/05/09 00:36:48;;;;;;;;;20.50;17.00;;;;;14.54;59.93;101582.34;4957030;28;45315;-59
2022/05/09 00:39:14;;;;;;;;;21.25;19.25;;;;;14.49;60.12;101581.66;4958294;28;45227;-60
2022/05/09 00:41:42;;;;;;;;;17.25;14.00;;;;;14.40;60.27;101567.88;4955494;28;46188;-58
2022/05/09 00:44:10;;;;;;;;;19.50;16.50;;;;;14.36;60.31;101573.38;4955720;28;45501;-59
2022/05/09 00:46:41;;;;;;;;;24.75;21.25;;;;;14.30;60.19;101570.03;4956002;28;45246;-59
2022/05/09 00:49:34;;;;;;;;;18.00;18.00;;;;;14.25;60.47;101574.63;4937056;28;45515;-59
2022/05/09 00:52:12;;;;;;;;;16.25;16.00;;;;;14.20;60.58;101578.41;4956998;28;46087;-59
2022/05/09 00:54:45;;;;;;;;;19.50;18.50;;;;;14.17;60.43;101567.03;4956535;28;45385;-59
2022/05/09 00:57:19;;;;;;;;;16.50;16.50;;;;;14.13;60.54;101568.06;4956172;28;45431;-58
2022/05/09 00:59:47;;;;;;;;;19.00;17.75;;;;;14.07;60.54;101565.66;4939223;28;45543;-61
2022/05/09 01:02:14;;;;;;;;;14.50;14.25;;;;;14.00;60.37;101559.72;4955843;28;45680;-59
2022/05/09 01:04:50;;;;;;;;;18.00;15.75;;;;;14.01;60.82;101573.84;4957143;28;45245;-59
2022/05/09 01:07:16;;;;;;;;;21.00;17.25;;;;;13.93;60.93;101563.53;4956356;28;45346;-59
2022/05/09 01:09:41;;;;;;;;;19.75;16.75;;;;;13.94;60.49;101572.34;4955653;28;45424;-59
2022/05/09 01:12:10;;;;;;;;;14.00;14.00;;;;;13.88;60.73;101570.78;4956262;28;46314;-60
2022/05/09 01:14:39;;;;;;;;;16.75;15.75;;;;;13.84;60.80;101563.91;4956611;28;45396;-59
2022/05/09 01:17:05;;;;;;;;;14.50;14.50;;;;;13.84;60.90;101562.13;4956125;28;45424;-59
2022/05/09 01:19:36;;;;;;;;;15.75;15.25;;;;;13.81;60.72;101564.00;4955679;28;45351;-60
2022/05/09 01:22:24;;;;;;;;;17.50;12.25;;;;;13.77;60.95;101557.97;4956941;28;46488;-59
2022/05/09 01:24:50;;;;;;;;;15.50;13.75;;;;;13.76;60.68;101555.41;4950236;28;45345;-60
2022/05/09 01:27:15;;;;;;;;;14.25;13.00;;;;;13.71;60.89;101559.06;4956002;28;45191;-60
2022/05/09 01:30:02;;;;;;;;;15.25;12.75;;;;;13.71;60.89;101568.78;4938191;28;45342;-59
2022/05/09 01:33:03;;;;;;;;;11.75;11.75;;;;;13.68;60.88;101567.13;4955448;28;47010;-60
2022/05/09 01:35:38;;;;;;;;;11.00;11.00;;;;;13.64;60.78;101567.28;4932882;28;45844;-58
2022/05/09 01:38:25;;;;;;;;;13.75;12.75;;;;;13.60;61.10;101566.56;4955643;28;45335;-58
2022/05/09 01:40:50;;;;;;;;;14.75;13.50;;;;;13.54;60.91;101564.97;4956215;28;45290;-60
2022/05/09 01:43:34;;;;;;;;;11.00;10.00;;;;;13.54;60.81;101561.50;4941636;28;47021;-58
2022/05/09 01:46:10;;;;;;;;;16.50;13.25;;;;;13.50;60.90;101563.38;4958390;28;45339;-58
2022/05/09 01:51:20;;;;;;;;;15.00;14.00;;;;;13.42;60.39;101566.31;4958463;28;45331;-59
2022/05/09 01:53:50;;;;;;;;;10.50;10.50;;;;;13.42;60.49;101562.78;4958079;28;46075;-58
2022/05/09 01:56:17;;;;;;;;;15.75;14.50;;;;;13.37;61.25;101554.13;4959504;28;45387;-58
2022/05/09 01:58:42;;;;;;;;;11.00;11.00;;;;;13.34;60.84;101554.25;4959228;28;45436;-59
2022/05/09 02:01:08;;;;;;;;;12.50;10.50;;;;;13.29;61.49;101552.63;4959034;28;45242;-60
2022/05/09 02:03:34;;;;;;;;;12.50;10.75;;;;;13.26;61.43;101554.53;4958826;28;45347;-61
2022/05/09 02:06:00;;;;;;;;;10.25;10.00;;;;;13.19;61.34;101545.97;4958621;28;45428;-59
2022/05/09 02:08:25;;;;;;;;;14.25;12.25;;;;;13.20;61.02;101550.31;4960762;28;45376;-60
2022/05/09 02:10:51;;;;;;;;;11.50;11.50;;;;;13.17;60.97;101549.56;4959482;28;45446;-60
2022/05/09 02:13:16;;;;;;;;;12.00;12.00;;;;;13.19;61.00;101560.94;4957844;28;45787;-60
2022/05/09 02:15:41;;;;;;;;;13.75;9.50;;;;;13.17;60.91;101558.38;4957663;28;45307;-60
2022/05/09 02:18:07;;;;;;;;;8.00;8.00;;;;;13.14;61.01;101556.69;4958981;28;45247;-58
2022/05/09 02:20:32;;;;;;;;;14.00;11.50;;;;;13.06;60.93;101544.69;4940967;28;45297;-59
2022/05/09 02:22:58;;;;;;;;;12.50;12.00;;;;;13.11;60.93;101554.16;4957568;28;46369;-58
2022/05/09 02:25:26;;;;;;;;;12.00;10.50;;;;;13.09;60.76;101550.69;4958767;28;45332;-61
2022/05/09 02:27:52;;;;;;;;;11.75;10.50;;;;;13.09;60.63;101555.97;4958781;28;45306;-59
2022/05/09 02:30:18;;;;;;;;;10.50;10.50;;;;;13.08;60.61;101553.41;4958380;28;45420;-61
2022/05/09 02:32:43;;;;;;;;;8.75;8.75;;;;;13.08;60.77;101556.03;4959011;28;46596;-59
2022/05/09 02:35:09;;;;;;;;;11.25;11.25;;;;;13.06;60.70;101552.59;4960835;28;45314;-58
2022/05/09 02:37:34;;;;;;;;;12.75;11.00;;;;;13.04;60.62;101551.78;4960817;28;45298;-60
2022/05/09 02:39:59;;;;;;;;;12.75;11.25;;;;;13.04;61.01;101557.91;4959390;28;45287;-61
2022/05/09 02:42:25;;;;;;;;;11.00;11.00;;;;;13.00;60.63;101557.19;4961014;28;46462;-59
2022/05/09 02:44:52;;;;;;;;;12.75;10.75;;;;;13.02;60.65;101556.25;4958407;28;45293;-60
2022/05/09 02:47:20;;;;;;;;;12.25;11.75;;;;;12.93;60.74;101546.88;4959019;28;45400;-59
2022/05/09 02:49:45;;;;;;;;;10.00;10.00;;;;;12.97;61.40;101549.38;4940174;28;45602;-58
2022/05/09 02:52:11;;;;;;;;;10.50;10.50;;;;;12.81;61.31;101519.13;4957404;28;46102;-59
2022/05/09 02:54:36;;;;;;;;;13.75;12.00;;;;;12.95;61.31;101542.41;4956874;28;45517;-60
2022/05/09 02:57:02;;;;;;;;;14.00;8.75;;;;;12.93;60.92;101549.50;4957595;28;45457;-58
2022/05/09 02:59:28;;;;;;;;;12.50;9.25;;;;;12.91;61.03;101544.28;4957557;28;45487;-61
2022/05/09 03:01:53;;;;;;;;;10.75;10.75;;;;;12.88;61.24;101541.75;4957168;28;45353;-59
2022/05/09 03:07:03;;;;;;;;;15.25;15.00;;;;;12.82;61.20;101536.69;4958766;28;45376;-59
2022/05/09 03:09:30;;;;;;;;;10.75;10.75;;;;;12.77;61.58;101544.75;4959074;28;45270;-57
2022/05/09 03:11:56;;;;;;;;;11.25;10.00;;;;;12.79;60.87;101536.81;4957410;28;46022;-61
2022/05/09 03:14:21;;;;;;;;;15.00;11.50;;;;;12.77;61.88;101543.91;4956913;28;45318;-59
2022/05/09 03:16:47;;;;;;;;;13.75;11.50;;;;;12.76;61.31;101536.91;4957412;28;45386;-59
2022/05/09 03:19:12;;;;;;;;;12.50;11.75;;;;;12.73;61.71;101539.66;4957955;28;45428;-59
2022/05/09 03:21:38;;;;;;;;;14.00;11.75;;;;;12.70;61.98;101536.16;4957678;28;45280;-59
2022/05/09 03:24:04;;;;;;;;;13.00;12.00;;;;;12.69;61.96;101536.25;4958096;28;45308;-58
2022/05/09 03:26:29;;;;;;;;;13.25;13.25;;;;;12.62;62.32;101529.44;4959020;28;45358;-60
2022/05/09 03:28:54;;;;;;;;;11.00;10.50;;;;;12.64;61.91;101532.88;4958860;28;45608;-60
2022/05/09 03:31:20;;;;;;;;;14.00;11.50;;;;;12.60;62.45;101540.03;4957888;28;45988;-60
2022/05/09 03:33:45;;;;;;;;;14.50;12.25;;;;;12.55;62.28;101537.56;4940263;28;45439;-61
2022/05/09 03:36:11;;;;;;;;;14.00;10.75;;;;;12.55;62.34;101547.25;4959527;28;45275;-60
2022/05/09 03:38:39;;;;;;;;;13.50;13.25;;;;;12.45;62.40;101536.16;4958831;28;45322;-60
2022/05/09 03:41:05;;;;;;;;;12.25;10.00;;;;;12.43;62.27;101537.97;4940590;28;46051;-59
2022/05/09 03:43:31;;;;;;;;;15.25;13.00;;;;;12.40;63.06;101541.56;4957759;28;45313;-60
2022/05/09 03:45:57;;;;;;;;;14.25;11.25;;;;;12.39;63.28;101537.19;4960524;28;45203;-59
2022/05/09 03:48:23;;;;;;;;;12.75;12.00;;;;;12.39;63.38;101539.84;4960644;28;45265;-58
2022/05/09 03:50:48;;;;;;;;;12.25;12.25;;;;;12.39;63.22;101534.56;4959010;28;45273;-58
2022/05/09 03:53:13;;;;;;;;;19.75;15.25;;;;;12.37;63.20;101543.44;4961219;28;45333;-60
2022/05/09 03:55:39;;;;;;;;;15.50;12.50;;;;;12.36;63.25;101541.72;4956766;28;45293;-57
2022/05/09 03:58:04;;;;;;;;;12.25;10.75;;;;;12.34;63.15;101541.75;4956769;28;45494;-58
2022/05/09 04:00:32;;;;;;;;;20.00;13.75;;;;;12.29;63.98;101540.19;4956868;28;45415;-61
2022/05/09 04:02:59;;;;;;;;;16.50;12.25;;;;;12.19;63.84;101521.16;4956321;28;45397;-59
2022/05/09 04:05:30;;;;;;;;;17.75;15.00;;;;;12.27;63.36;101537.59;4955105;28;45366;-60
2022/05/09 04:07:57;;;;;;;;;17.00;13.75;;;;;12.27;64.17;101540.22;4956569;28;45384;-60
2022/05/09 04:10:25;;;;;;;;;15.50;15.50;;;;;12.24;63.97;101538.56;4956793;28;46089;-58
2022/05/09 04:12:50;;;;;;;;;17.25;15.50;;;;;12.25;63.92;101542.94;4958497;28;45171;-61
2022/05/09 04:18:00;;;;;;;;;18.25;16.75;;;;;12.20;63.68;101538.69;4956659;28;45333;-61
2022/05/09 04:20:29;;;;;;;;;14.75;12.00;;;;;12.21;64.34;101536.03;4956241;28;45309;-59
2022/05/09 04:22:56;;;;;;;;;20.50;14.75;;;;;12.23;64.24;101535.97;4955975;28;45364;-60
2022/05/09 04:25:22;;;;;;;;;15.00;15.00;;;;;12.25;64.02;101536.78;4956326;28;45279;-60
2022/05/09 04:27:48;;;;;;;;;22.25;16.75;;;;;12.23;63.94;101536.84;4956254;28;45384;-59
2022/05/09 04:30:14;;;;;;;;;18.50;12.75;;;;;12.19;64.15;101537.81;4955995;28;45356;-59
2022/05/09 04:32:40;;;;;;;;;15.25;15.25;;;;;12.23;64.40;101551.78;4938943;28;45490;-60
2022/05/09 04:35:07;;;;;;;;;20.00;16.00;;;;;12.15;64.48;101536.19;4957731;28;45445;-59
2022/05/09 04:37:33;;;;;;;;;16.25;16.25;;;;;12.22;64.18;101537.75;4956161;28;45613;-58
2022/05/09 04:39:59;;;;;;;;;18.50;15.50;;;;;12.19;64.30;101537.81;4955807;28;46239;-59
2022/05/09 04:42:24;;;;;;;;;21.25;15.25;;;;;12.19;64.45;101531.69;4956212;28;45431;-60
2022/05/09 04:44:50;;;;;;;;;18.25;16.00;;;;;12.20;64.55;101533.41;4956123;28;45370;-58
2022/05/09 04:47:15;;;;;;;;;15.00;14.00;;;;;12.23;64.78;101530.69;4957050;28;45406;-59
2022/05/09 04:49:40;;;;;;;;;16.50;15.25;;;;;12.25;64.56;101542.06;4958132;28;45393;-58
2022/05/09 04:52:06;;;;;;;;;18.75;16.00;;;;;12.24;64.53;101532.41;4958919;28;45290;-60
2022/05/09 04:54:32;;;;;;;;;16.25;15.50;;;;;12.30;64.17;101550.69;4939959;28;45473;-59
2022/05/09 04:56:57;;;;;;;;;16.50;16.00;;;;;12.27;64.24;101527.03;4958145;28;45301;-59
2022/05/09 04:59:23;;;;;;;;;19.25;17.75;;;;;12.34;64.20;101539.13;4938947;28;47715;-60
2022/05/09 05:01:49;;;;;;;;;15.75;15.00;;;;;12.35;64.22;101532.09;4956333;28;45433;-60
2022/05/09 05:04:16;;;;;;;;;21.50;17.50;;;;;12.38;64.81;101531.97;4956594;28;45461;-59
2022/05/09 05:06:41;;;;;;;;;18.25;17.25;;;;;12.40;64.08;101530.16;4956780;28;45479;-59
2022/05/09 05:09:06;;;;;;;;;22.00;18.50;;;;;12.51;64.08;101532.41;4955464;28;50088;-60
2022/05/09 05:11:32;;;;;;;;;21.25;19.00;;;;;12.66;63.71;101537.19;4955451;28;45273;-61
2022/05/09 05:13:57;;;;;;;;;23.50;17.75;;;;;12.81;63.74;101540.25;4955365;28;45476;-65
2022/05/09 05:16:59;;;;;;;;;16.75;16.00;;;;;12.95;63.03;101539.75;4957709;28;45642;-58
2022/05/09 05:19:08;;;;;;;;;20.75;14.75;;;;;13.02;62.79;101543.06;4964367;28;46088;-61
2022/05/09 05:21:33;;;;;;;;;18.75;16.25;;;;;13.04;63.04;101543.88;4959897;28;45350;-61
2022/05/09 05:23:59;;;;;;;;;23.75;18.00;;;;;13.08;62.61;101548.13;4960736;28;45302;-59
2022/05/09 05:26:24;;;;;;;;;17.50;16.50;;;;;13.13;62.78;101547.03;4963751;28;45250;-61
2022/05/09 05:28:50;;;;;;;;;13.75;13.75;;;;;13.14;62.34;101551.38;4958562;28;52194;-59
2022/05/09 05:31:18;;;;;;;;;19.75;17.25;;;;;13.10;62.20;101541.84;4958651;28;45391;-60
2022/05/09 05:33:45;;;;;;;;;20.75;17.25;;;;;13.15;62.38;101549.63;4958870;28;45451;-59
2022/05/09 05:36:11;;;;;;;;;18.00;18.00;;;;;13.22;61.78;101556.41;4959489;28;45826;-61
2022/05/09 05:38:37;;;;;;;;;17.50;16.75;;;;;13.24;61.88;101557.22;4943142;28;47978;-62
2022/05/09 05:41:02;;;;;;;;;23.25;20.50;;;;;13.26;61.94;101562.47;4960058;28;45483;-59
2022/05/09 05:43:28;;;;;;;;;20.75;18.00;;;;;13.29;61.87;101565.00;4958227;28;45215;-61
2022/05/09 05:45:57;;;;;;;;;23.25;21.50;;;;;13.22;61.90;101545.84;4958535;28;45483;-59
2022/05/09 05:48:22;;;;;;;;;52.75;43.75;;;;;13.34;61.80;101562.19;4958108;28;45374;-60
2022/05/09 05:50:48;;;;;;;;;22.00;17.00;;;;;13.34;61.60;101554.25;4958336;28;45449;-61
2022/05/09 05:53:13;;;;;;;;;18.75;16.00;;;;;13.34;61.46;101549.84;4959109;28;45381;-60
2022/05/09 05:55:38;;;;;;;;;28.75;20.00;;;;;13.32;61.33;101543.75;4959490;28;45342;-62
2022/05/09 05:58:04;;;;;;;;;22.25;18.50;;;;;13.34;61.36;101549.84;4959413;28;49667;-60
2022/05/09 06:00:29;;;;;;;;;19.75;18.75;;;;;13.36;61.66;101544.47;4941918;28;45319;-61
2022/05/09 06:02:55;;;;;;;;;18.50;17.25;;;;;13.41;61.53;101550.47;4958393;28;45314;-61
2022/05/09 06:05:20;;;;;;;;;23.25;19.50;;;;;13.41;61.11;101545.19;4958601;28;45409;-61
2022/05/09 06:07:48;;;;;;;;;25.75;21.25;;;;;13.46;61.59;101553.84;4958137;28;45397;-61
2022/05/09 06:10:15;;;;;;;;;25.75;21.50;;;;;13.53;61.21;101563.25;4958376;28;45291;-61
2022/05/09 06:12:41;;;;;;;;;20.00;18.75;;;;;13.59;61.23;101563.03;4960633;28;45358;-62
2022/05/09 06:15:28;;;;;;;;;20.75;19.75;;;;;13.65;60.95;101569.88;4960170;28;45514;-63
2022/05/09 06:17:59;;;;;;;;;19.50;18.00;;;;;13.72;61.06;101567.84;4957814;28;45471;-61
2022/05/09 06:20:26;;;;;;;;;22.25;19.50;;;;;13.76;60.86;101566.81;4959805;28;45279;-61
2022/05/09 06:22:54;;;;;;;;;29.25;25.50;;;;;13.75;60.73;101567.75;4959460;28;45551;-61
2022/05/09 06:25:21;;;;;;;;;19.25;18.25;;;;;13.82;60.42;101573.66;4942697;28;45504;-61
2022/05/09 06:27:47;;;;;;;;;21.25;20.75;;;;;13.85;60.62;101571.78;4957692;28;46127;-61
2022/05/09 06:30:15;;;;;;;;;19.75;17.50;;;;;13.91;60.53;101575.13;4956487;28;45227;-61
2022/05/09 06:32:40;;;;;;;;;26.75;23.50;;;;;13.79;60.35;101544.69;4957857;28;45386;-61
2022/05/09 06:35:09;;;;;;;;;24.00;23.00;;;;;14.10;60.02;101570.84;4957620;28;45397;-61
2022/05/09 06:37:37;;;;;;;;;19.25;17.75;;;;;14.19;59.92;101574.88;4957555;28;45257;-60
2022/05/09 06:40:04;;;;;;;;;16.25;15.50;;;;;14.29;59.50;101573.59;4957578;28;45315;-61
2022/05/09 06:42:29;;;;;;;;;21.00;21.00;;;;;14.36;59.41;101579.50;4957861;28;45767;-61
2022/05/09 06:44:55;;;;;;;;;21.50;18.50;;;;;14.43;59.23;101583.63;4956000;28;45557;-60
2022/05/09 06:47:21;;;;;;;;;25.75;19.25;;;;;14.50;59.18;101578.09;4956891;28;45552;-64
2022/05/09 06:49:46;;;;;;;;;23.50;21.50;;;;;14.61;58.91;101591.75;4957219;28;45331;-61
2022/05/09 06:52:11;;;;;;;;;22.75;20.75;;;;;14.68;58.78;101587.91;4957393;28;45489;-61
2022/05/09 06:54:37;;;;;;;;;25.00;22.75;;;;;14.69;58.55;101579.06;4939364;28;45453;-66
2022/05/09 06:57:03;;;;;;;;;26.75;20.25;;;;;14.80;58.17;101596.31;4956313;28;46166;-59
2022/05/09 06:59:31;;;;;;;;;25.75;18.75;;;;;14.85;58.22;101597.00;4956945;28;45409;-61
2022/05/09 07:01:56;;;;;;;;;23.50;19.75;;;;;14.90;58.04;101598.53;4957571;28;45224;-61
2022/05/09 07:04:21;;;;;;;;;21.25;19.50;;;;;14.94;57.97;101587.78;4958604;28;45268;-61
2022/05/09 07:06:48;;;;;;;;;19.25;17.50;;;;;14.98;57.63;101584.09;4956047;28;50578;-61
2022/05/09 07:09:15;;;;;;;;;24.00;20.25;;;;;15.01;57.56;101587.47;4956164;28;45391;-61
2022/05/09 07:11:41;;;;;;;;;22.25;19.25;;;;;15.06;57.51;101589.06;4956624;28;45338;-61
2022/05/09 07:14:07;;;;;;;;;27.50;22.00;;;;;15.12;57.54;101591.47;4956616;28;45355;-65
2022/05/09 07:16:32;;;;;;;;;20.00;20.00;;;;;15.11;57.56;101590.56;4956741;28;46181;-60
2022/05/09 07:18:58;;;;;;;;;21.75;21.75;;;;;15.23;57.15;101583.03;4955339;28;45408;-61
2022/05/09 07:21:25;;;;;;;;;23.75;19.50;;;;;15.32;57.06;101593.22;4957349;28;45290;-61
2022/05/09 07:23:51;;;;;;;;;21.75;20.75;;;;;15.36;56.80;101599.25;4957724;28;45391;-72
2022/05/09 07:26:16;;;;;;;;;21.25;19.75;;;;;15.38;56.89;101592.97;4957718;28;45986;-69
2022/05/09 07:28:42;;;;;;;;;21.75;19.50;;;;;15.48;56.48;101593.41;4956997;28;45270;-70
2022/05/09 07:31:08;;;;;;;;;24.25;23.50;;;;;15.50;56.60;101580.94;4956283;28;45316;-68
2022/05/09 07:33:34;;;;;;;;;27.00;24.00;;;;;15.62;57.00;101588.34;4957673;28;45231;-69
2022/05/09 07:36:00;;;;;;;;;31.50;27.50;;;;;15.76;56.35;101589.50;4940174;28;47812;-65
2022/05/09 07:38:25;;;;;;;;;35.00;30.25;;;;;15.87;56.24;101592.53;4956206;28;45474;-58
2022/05/09 07:40:51;;;;;;;;;26.75;26.50;;;;;15.97;55.96;101584.19;4956445;28;45242;-63
2022/05/09 07:43:23;;;;;;;;;41.00;35.25;;;;;16.12;55.44;101593.19;4956378;28;45556;-58
2022/05/09 07:45:49;;;;;;;;;30.50;26.75;;;;;16.21;55.51;101587.44;4956493;28;45412;-60
2022/05/09 07:48:16;;;;;;;;;34.75;30.50;;;;;16.33;55.39;101593.97;4955633;28;45519;-59
2022/05/09 07:50:42;;;;;;;;;34.00;27.50;;;;;16.48;55.72;101582.59;4955838;28;45466;-60
2022/05/09 07:53:10;;;;;;;;;28.50;21.00;;;;;16.60;55.07;101574.97;4958257;28;45545;-59
2022/05/09 07:55:36;;;;;;;;;32.00;30.00;;;;;16.70;54.75;101578.88;4956440;28;45893;-60
2022/05/09 07:58:02;;;;;;;;;37.75;30.25;;;;;16.79;53.83;101582.88;4956387;28;45343;-59
2022/05/09 08:00:28;;;;;;;;;25.50;24.75;;;;;16.82;54.24;101581.84;4957380;28;45323;-60
2022/05/09 08:02:53;;;;;;;;;29.50;25.25;;;;;16.89;54.24;101583.25;4956954;28;45265;-61
2022/05/09 08:05:18;;;;;;;;;29.00;27.75;;;;;16.98;54.11;101582.84;4956264;28;46040;-60
2022/05/09 08:07:44;;;;;;;;;31.75;27.50;;;;;17.04;53.79;101579.00;4956351;28;45163;-59
2022/05/09 08:10:11;;;;;;;;;20.50;20.00;;;;;17.17;53.96;101581.88;4955884;28;45392;-60
2022/05/09 08:12:37;;;;;;;;;26.50;23.25;;;;;17.30;53.25;101584.75;4956574;28;45356;-59
2022/05/09 08:15:04;;;;;;;;;30.25;26.25;;;;;17.40;53.45;101577.16;4956048;28;45464;-60
2022/05/09 08:17:32;;;;;;;;;26.25;24.75;;;;;17.44;53.46;101581.38;4956031;28;45284;-61
2022/05/09 08:19:57;;;;;;;;;24.25;21.75;;;;;17.60;53.27;101582.25;4955008;28;45349;-61
2022/05/09 08:22:24;;;;;;;;;23.25;21.50;;;;;17.73;52.93;101586.91;4956066;28;45449;-59
2022/05/09 08:24:50;;;;;;;;;33.00;30.00;;;;;17.88;52.76;101590.53;4955593;28;45389;-60
2022/05/09 08:27:15;;;;;;;;;27.75;23.00;;;;;18.01;52.59;101591.63;4955759;28;47530;-58
2022/05/09 08:29:40;;;;;;;;;22.75;21.50;;;;;18.13;52.09;101587.41;4956254;28;45401;-60
2022/05/09 08:32:06;;;;;;;;;27.00;26.75;;;;;18.22;52.18;101592.22;4957209;28;45227;-59
2022/05/09 08:34:34;;;;;;;;;21.75;20.00;;;;;18.35;51.97;101583.53;4955658;28;46217;-62
2022/05/09 08:37:00;;;;;;;;;26.50;25.00;;;;;18.47;51.89;101585.50;4956491;28;45389;-58
2022/05/09 08:39:26;;;;;;;;;23.50;19.25;;;;;18.54;51.33;101586.84;4958465;28;45237;-60
2022/05/09 08:42:04;;;;;;;;;24.25;24.25;;;;;18.65;51.37;101586.25;4958606;28;45528;-63
2022/05/09 08:45:03;;;;;;;;;26.00;26.00;;;;;18.69;51.23;101587.78;4956175;28;45491;-61
2022/05/09 08:47:49;;;;;;;;;25.00;21.00;;;;;18.81;50.75;101588.00;4956052;28;45338;-61
2022/05/09 08:50:43;;;;;;;;;27.25;24.50;;;;;18.90;50.84;101591.91;4955905;28;45388;-60
2022/05/09 08:53:15;;;;;;;;;24.25;23.25;;;;;18.97;50.88;101587.97;4955092;28;45323;-60
2022/05/09 08:55:42;;;;;;;;;30.00;26.75;;;;;18.93;49.91;101562.41;4955676;28;45593;-62
2022/05/09 08:58:19;;;;;;;;;26.25;25.00;;;;;19.23;50.18;101590.88;4955289;28;45390;-62
2022/05/09 09:00:47;;;;;;;;;29.25;24.25;;;;;19.36;49.94;101583.84;4955030;28;45216;-60
2022/05/09 09:03:13;;;;;;;;;35.25;31.00;;;;;19.50;50.44;101576.78;4955286;28;45510;-58
2022/05/09 09:05:42;;;;;;;;;23.50;21.75;;;;;19.65;49.50;101575.00;4954919;28;46561;-60
2022/05/09 09:08:23;;;;;;;;;33.00;28.75;;;;;19.67;48.82;101573.06;4955105;28;45334;-60
2022/05/09 09:11:05;;;;;;;;;30.75;27.75;;;;;19.69;49.17;101574.69;4955486;28;45378;-61
2022/05/09 09:13:30;;;;;;;;;22.50;21.75;;;;;19.71;49.45;101580.78;4956646;28;45259;-60
2022/05/09 09:16:11;;;;;;;;;28.50;26.00;;;;;19.79;48.90;101574.97;4958187;28;45274;-59
2022/05/09 09:18:50;;;;;;;;;25.00;25.00;;;;;19.87;49.15;101571.78;4955106;28;45441;-60
2022/05/09 09:21:42;;;;;;;;;25.25;24.00;;;;;19.91;48.56;101568.00;4956355;28;45308;-62
2022/05/09 09:24:33;;;;;;;;;27.50;25.00;;;;;20.02;48.94;101561.97;4954647;28;45370;-61
2022/05/09 09:27:30;;;;;;;;;27.75;25.25;;;;;20.18;48.79;101558.31;4956224;28;45330;-59
2022/05/09 09:29:58;;;;;;;;;36.50;30.75;;;;;20.33;48.09;101559.13;4937536;28;45927;-61
2022/05/09 09:32:24;;;;;;;;;25.75;24.00;;;;;20.44;48.07;101557.44;4955141;28;45361;-59
2022/05/09 09:35:02;;;;;;;;;25.25;23.25;;;;;20.51;47.86;101562.38;4955404;28;45375;-61
2022/05/09 09:37:36;;;;;;;;;22.50;22.00;;;;;20.63;47.84;101558.03;4955406;28;45375;-60
2022/05/09 09:40:04;;;;;;;;;27.75;24.00;;;;;20.73;46.95;101562.66;4954114;28;45244;-60
2022/05/09 09:42:30;;;;;;;;;32.75;25.00;;;;;20.80;46.98;101562.28;4955163;28;45353;-61
2022/05/09 09:44:58;;;;;;;;;23.50;22.75;;;;;20.87;46.70;101567.09;4937528;28;45447;-60
2022/05/09 09:47:26;;;;;;;;;27.00;26.00;;;;;20.97;46.98;101572.66;4954666;28;46401;-60
2022/05/09 09:50:13;;;;;;;;;27.25;24.75;;;;;21.11;46.11;101569.03;4954510;28;45492;-61
2022/05/09 09:52:43;;;;;;;;;28.50;26.50;;;;;21.22;45.99;101570.13;4955351;28;45350;-60
2022/05/09 09:55:27;;;;;;;;;28.25;25.25;;;;;21.31;45.93;101564.97;4953811;28;45436;-60
2022/05/09 09:57:55;;;;;;;;;23.75;21.75;;;;;21.41;45.78;101565.19;4954549;28;45385;-59
2022/05/09 10:00:30;;;;;;;;;25.00;24.25;;;;;21.50;45.76;101560.16;4937267;28;45284;-63
2022/05/09 10:03:15;;;;;;;;;30.00;27.00;;;;;21.62;45.32;101555.72;4956468;28;45343;-62
2022/05/09 10:05:44;;;;;;;;;29.00;27.00;;;;;21.70;45.29;101548.03;4959407;28;45405;-61
2022/05/09 10:08:22;;;;;;;;;31.25;27.50;;;;;21.82;44.98;101554.31;4958360;28;46424;-62
2022/05/09 10:11:20;;;;;;;;;25.00;25.00;;;;;21.95;44.57;101559.66;4958207;28;45300;-62
2022/05/09 10:13:54;;;;;;;;;24.00;23.75;;;;;22.03;44.52;101554.59;4940037;28;45219;-60
2022/05/09 10:16:45;;;;;;;;;27.75;26.00;;;;;22.16;44.34;101552.69;4958099;28;45464;-62
2022/05/09 10:19:27;;;;;;;;;32.00;29.00;;;;;22.28;43.96;101550.94;4958683;28;45369;-61
2022/05/09 10:24:57;;;;;;;;;37.25;32.50;;;;;22.48;43.16;101537.91;4958234;28;45433;-61
2022/05/09 10:27:22;;;;;;;;;28.00;28.00;;;;;22.58;43.03;101538.91;4957498;28;45232;-59
2022/05/09 10:29:55;;;;;;;;;30.50;27.25;;;;;22.72;42.50;101531.63;4956915;28;46305;-59
2022/05/09 10:32:29;;;;;;;;;30.75;28.50;;;;;22.81;42.98;101530.06;4957723;28;45208;-61
2022/05/09 10:35:19;;;;;;;;;27.25;26.00;;;;;22.97;42.60;101529.72;4958168;28;45400;-60
2022/05/09 10:37:53;;;;;;;;;24.25;24.25;;;;;23.02;42.27;101528.41;4957406;28;45180;-60
2022/05/09 10:41:03;;;;;;;;;25.25;22.75;;;;;23.00;42.23;101524.09;4957204;28;46460;-61
2022/05/09 10:43:42;;;;;;;;;29.00;26.75;;;;;23.03;41.07;101527.41;4921540;28;45443;-61
2022/05/09 10:46:11;;;;;;;;;23.75;23.25;;;;;23.04;41.57;101525.56;4957925;28;45199;-63
2022/05/09 10:48:48;;;;;;;;;31.50;26.25;;;;;23.15;41.54;101524.75;4958021;28;45394;-60
2022/05/09 10:51:34;;;;;;;;;30.25;28.00;;;;;23.29;41.48;101524.53;4958221;28;45669;-62
2022/05/09 10:54:20;;;;;;;;;31.75;27.00;;;;;23.35;41.46;101531.25;4957358;28;45350;-62
2022/05/09 10:57:14;;;;;;;;;29.25;27.25;;;;;23.44;41.37;101517.09;4958355;28;45393;-62
2022/05/09 10:59:41;;;;;;;;;28.25;28.00;;;;;23.58;41.03;101509.75;4957601;28;45248;-60
2022/05/09 11:02:19;;;;;;;;;41.75;35.50;;;;;23.74;41.37;101506.66;4958430;28;45318;-62
2022/05/09 11:04:45;;;;;;;;;28.75;27.50;;;;;23.87;40.75;101509.19;4959704;28;45220;-60
2022/05/09 11:07:22;;;;;;;;;28.25;24.50;;;;;24.03;40.68;101514.19;4957525;28;45337;-64
2022/05/09 11:09:56;;;;;;;;;25.25;25.25;;;;;24.14;40.30;101506.09;4957514;28;45386;-60
2022/05/09 11:12:50;;;;;;;;;25.00;24.00;;;;;24.25;39.97;101501.66;4957094;28;46438;-61
2022/05/09 11:15:35;;;;;;;;;28.75;26.50;;;;;24.28;39.76;101501.41;4955130;28;45530;-61
2022/05/09 11:18:23;;;;;;;;;34.25;29.75;;;;;24.43;39.07;101510.00;4957454;28;45536;-61
2022/05/09 11:21:00;;;;;;;;;28.50;27.00;;;;;24.54;39.17;101504.56;4951949;28;45504;-60
2022/05/09 11:23:43;;;;;;;;;25.75;24.75;;;;;24.66;39.05;101491.88;4957989;28;46366;-62
2022/05/09 11:26:41;;;;;;;;;25.75;22.25;;;;;24.85;38.80;101501.09;4958367;28;45552;-62
2022/05/09 11:29:15;;;;;;;;;25.00;24.25;;;;;24.90;38.44;101506.91;4922867;28;45521;-62
2022/05/09 11:31:55;;;;;;;;;30.25;29.00;;;;;24.98;38.21;101500.88;4955977;28;45265;-62